createdAt,value
2017-10-15T00:01:58.314Z,86.10
2017-10-15T00:04:24.726Z,86.00
2017-10-15T00:06:51.181Z,85.60
2017-10-15T00:09:17.605Z,85.60
2017-10-15T00:11:44.011Z,85.80
2017-10-15T00:14:10.472Z,85.80
2017-10-15T00:16:36.876Z,85.60
2017-10-15T00:19:03.320Z,85.60
2017-10-15T00:21:29.704Z,85.60
2017-10-15T00:23:56.136Z,85.60
2017-10-15T00:26:22.596Z,86.00
2017-10-15T00:28:49.751Z,85.90
2017-10-15T00:31:16.876Z,85.10
2017-10-15T00:33:43.323Z,85.10
2017-10-15T00:36:10.467Z,86.00
2017-10-15T00:38:37.661Z,86.40
2017-10-15T00:41:04.092Z,86.20
2017-10-15T00:43:30.531Z,86.20
2017-10-15T00:45:56.968Z,86.20
2017-10-15T00:48:23.372Z,85.80
2017-10-15T00:50:49.816Z,86.20
2017-10-15T00:53:16.252Z,86.40
2017-10-15T00:55:42.740Z,86.10
2017-10-15T00:58:09.179Z,86.20
2017-10-15T01:00:35.628Z,86.70
2017-10-15T01:03:02.824Z,86.10
2017-10-15T01:05:29.288Z,86.10
2017-10-15T01:07:55.779Z,85.60
2017-10-15T01:10:22.251Z,85.50
2017-10-15T01:12:48.669Z,85.60
2017-10-15T01:15:15.845Z,85.80
2017-10-15T01:17:42.285Z,85.80
2017-10-15T01:20:09.477Z,86.00
2017-10-15T01:22:35.951Z,85.60
2017-10-15T01:25:02.419Z,86.30
2017-10-15T01:27:29.575Z,86.20
2017-10-15T01:29:57.060Z,86.00
2017-10-15T01:32:23.571Z,86.00
2017-10-15T01:34:50.819Z,86.40
2017-10-15T01:37:17.996Z,85.90
2017-10-15T01:39:44.445Z,85.90
2017-10-15T01:42:10.917Z,86.00
2017-10-15T01:44:37.408Z,85.60
2017-10-15T01:47:03.920Z,85.40
2017-10-15T01:49:30.363Z,85.80
2017-10-15T01:51:56.880Z,85.20
2017-10-15T01:54:24.061Z,85.10
2017-10-15T01:56:50.544Z,85.10
2017-10-15T01:59:17.713Z,85.30
2017-10-15T02:01:44.113Z,85.30
2017-10-15T02:04:10.581Z,85.10
2017-10-15T02:06:37.763Z,85.60
2017-10-15T02:09:04.236Z,85.40
2017-10-15T02:11:30.636Z,85.40
2017-10-15T02:13:57.088Z,85.40
2017-10-15T02:16:23.557Z,85.60
2017-10-15T02:18:50.020Z,84.90
2017-10-15T02:21:16.502Z,85.90
2017-10-15T02:23:42.936Z,85.70
2017-10-15T02:26:09.390Z,85.80
2017-10-15T02:28:36.533Z,85.10
2017-10-15T02:31:02.940Z,85.00
2017-10-15T02:33:29.404Z,84.90
2017-10-15T02:35:56.620Z,85.00
2017-10-15T02:38:23.050Z,85.20
2017-10-15T02:40:49.523Z,85.20
2017-10-15T02:43:16.760Z,85.00
2017-10-15T02:45:43.948Z,84.80
2017-10-15T02:48:10.421Z,84.70
2017-10-15T02:50:36.851Z,85.00
2017-10-15T02:53:03.292Z,84.90
2017-10-15T02:55:29.711Z,84.80
2017-10-15T02:57:56.128Z,84.70
2017-10-15T03:00:22.604Z,84.70
2017-10-15T03:02:49.029Z,84.60
2017-10-15T03:05:15.457Z,84.60
2017-10-15T03:07:41.896Z,84.40
2017-10-15T03:10:08.340Z,84.20
2017-10-15T03:12:34.752Z,84.40
2017-10-15T03:15:01.167Z,84.40
2017-10-15T03:17:27.600Z,84.60
2017-10-15T03:19:54.089Z,84.50
2017-10-15T03:22:21.304Z,84.90
2017-10-15T03:24:47.719Z,84.70
2017-10-15T03:27:14.116Z,84.90
2017-10-15T03:29:40.550Z,84.70
2017-10-15T03:32:06.979Z,84.60
2017-10-15T03:34:33.425Z,84.40
2017-10-15T03:36:59.872Z,84.20
2017-10-15T03:39:26.344Z,84.20
2017-10-15T03:41:52.804Z,84.60
2017-10-15T03:44:20.000Z,85.00
2017-10-15T03:46:46.384Z,84.90
2017-10-15T03:49:13.553Z,84.80
2017-10-15T03:51:39.964Z,84.80
2017-10-15T03:54:07.116Z,85.10
2017-10-15T03:56:34.293Z,84.70
2017-10-15T03:59:00.693Z,84.70
2017-10-15T04:01:27.131Z,85.40
2017-10-15T04:03:54.319Z,85.10
2017-10-15T04:06:20.761Z,85.00
2017-10-15T04:08:47.187Z,85.00
2017-10-15T04:11:13.567Z,85.10
2017-10-15T04:13:40.002Z,84.80
2017-10-15T04:16:06.454Z,84.20
2017-10-15T04:18:33.659Z,84.10
2017-10-15T04:21:00.084Z,84.10
2017-10-15T04:23:26.561Z,84.30
2017-10-15T04:25:53.742Z,84.30
2017-10-15T04:28:20.177Z,84.20
2017-10-15T04:30:46.592Z,83.70
2017-10-15T04:33:13.011Z,83.80
2017-10-15T04:35:40.179Z,84.10
2017-10-15T04:38:07.320Z,84.30
2017-10-15T04:40:34.488Z,84.30
2017-10-15T04:43:00.897Z,84.30
2017-10-15T04:45:28.060Z,84.40
2017-10-15T04:47:54.496Z,84.30
2017-10-15T04:50:20.915Z,84.30
2017-10-15T04:52:48.100Z,84.70
2017-10-15T04:55:14.548Z,84.60
2017-10-15T04:57:41.692Z,84.10
2017-10-15T05:00:08.333Z,84.00
2017-10-15T05:02:34.880Z,84.30
2017-10-15T05:05:01.348Z,84.90
2017-10-15T05:07:27.776Z,84.40
2017-10-15T05:09:54.200Z,84.70
2017-10-15T05:12:20.603Z,84.00
2017-10-15T05:14:47.043Z,84.30
2017-10-15T05:17:13.476Z,83.80
2017-10-15T05:19:39.894Z,84.30
2017-10-15T05:22:06.320Z,84.80
2017-10-15T05:24:33.520Z,84.20
2017-10-15T05:26:59.955Z,84.90
2017-10-15T05:29:26.345Z,84.00
2017-10-15T05:31:52.829Z,84.00
2017-10-15T05:34:19.242Z,83.40
2017-10-15T05:36:45.720Z,83.90
2017-10-15T05:39:12.188Z,83.90
2017-10-15T05:41:38.799Z,84.50
2017-10-15T05:44:05.448Z,84.50
2017-10-15T05:46:32.620Z,84.60
2017-10-15T05:48:59.080Z,84.50
2017-10-15T05:51:25.744Z,84.90
2017-10-15T05:53:52.337Z,84.80
2017-10-15T05:56:19.650Z,84.70
2017-10-15T05:58:46.072Z,84.60
2017-10-15T06:01:12.512Z,84.90
2017-10-15T06:03:39.041Z,85.00
2017-10-15T06:06:05.889Z,84.90
2017-10-15T06:08:32.603Z,85.00
2017-10-15T06:10:59.849Z,85.00
2017-10-15T06:13:27.109Z,85.20
2017-10-15T06:15:53.677Z,85.10
2017-10-15T06:18:20.203Z,85.30
2017-10-15T06:20:46.708Z,85.40
2017-10-15T06:23:13.952Z,85.90
2017-10-15T06:25:40.539Z,85.90
2017-10-15T06:28:07.115Z,86.00
2017-10-15T06:30:34.357Z,86.20
2017-10-15T06:33:00.775Z,86.00
2017-10-15T06:35:27.278Z,86.00
2017-10-15T06:37:54.444Z,86.00
2017-10-15T06:40:21.549Z,86.00
2017-10-15T06:42:48.913Z,85.50
2017-10-15T06:45:16.180Z,85.10
2017-10-15T06:47:42.621Z,85.10
2017-10-15T06:50:09.097Z,85.30
2017-10-15T06:52:35.552Z,85.60
2017-10-15T06:55:02.119Z,85.50
2017-10-15T06:57:28.945Z,85.10
2017-10-15T06:59:55.702Z,85.60
2017-10-15T07:02:26.313Z,86.00
2017-10-15T07:04:52.982Z,85.80
2017-10-15T07:07:19.965Z,85.90
2017-10-15T07:09:46.585Z,85.50
2017-10-15T07:12:13.594Z,85.40
2017-10-15T07:14:40.212Z,84.40
2017-10-15T07:17:07.645Z,86.20
2017-10-15T07:19:34.934Z,86.10
2017-10-15T07:22:01.521Z,86.30
2017-10-15T07:24:28.430Z,86.70
2017-10-15T07:26:55.216Z,86.50
2017-10-15T07:29:22.483Z,87.50
2017-10-15T07:31:49.346Z,87.40
2017-10-15T07:34:16.159Z,87.20
2017-10-15T07:36:43.025Z,86.30
2017-10-15T07:39:09.821Z,85.40
2017-10-15T07:41:36.429Z,85.40
2017-10-15T07:44:03.030Z,85.10
2017-10-15T07:46:29.595Z,84.90
2017-10-15T07:48:56.500Z,85.20
2017-10-15T07:51:22.996Z,85.30
2017-10-15T07:53:49.624Z,84.60
2017-10-15T07:56:16.182Z,84.50
2017-10-15T07:58:42.732Z,83.90
2017-10-15T08:01:09.357Z,84.60
2017-10-15T08:03:36.593Z,84.20
2017-10-15T08:06:03.302Z,83.70
2017-10-15T08:08:29.868Z,83.80
2017-10-15T08:14:25.158Z,83.10
2017-10-15T08:19:50.412Z,82.40
2017-10-15T08:22:16.996Z,81.80
2017-10-15T08:24:44.018Z,81.60
2017-10-15T08:27:10.602Z,80.90
2017-10-15T08:29:37.844Z,81.70
2017-10-15T08:32:04.985Z,81.70
2017-10-15T08:34:31.639Z,83.80
2017-10-15T08:36:58.915Z,83.20
2017-10-15T08:39:25.408Z,83.20
2017-10-15T08:41:52.132Z,82.60
2017-10-15T08:44:19.490Z,81.10
2017-10-15T08:46:47.007Z,81.00
2017-10-15T08:49:13.850Z,80.90
2017-10-15T08:51:40.372Z,80.40
2017-10-15T08:54:06.883Z,80.30
2017-10-15T08:56:37.439Z,80.10
2017-10-15T08:59:04.157Z,80.50
2017-10-15T09:01:31.774Z,80.70
2017-10-15T09:03:59.125Z,80.00
2017-10-15T09:06:25.703Z,79.90
2017-10-15T09:08:52.140Z,80.00
2017-10-15T09:11:18.896Z,79.60
2017-10-15T09:13:46.710Z,79.90
2017-10-15T09:16:13.192Z,79.50
2017-10-15T09:18:40.433Z,81.10
2017-10-15T09:21:06.939Z,80.30
2017-10-15T09:23:33.466Z,82.40
2017-10-15T09:25:59.989Z,79.20
2017-10-15T09:28:26.489Z,78.50
2017-10-15T09:30:52.961Z,79.30
2017-10-15T09:33:19.546Z,80.80
2017-10-15T09:35:45.980Z,79.60
2017-10-15T09:38:12.454Z,80.20
2017-10-15T09:40:38.901Z,76.90
2017-10-15T09:43:05.425Z,78.10
2017-10-15T09:45:31.910Z,76.10
2017-10-15T09:47:58.402Z,77.50
2017-10-15T09:50:24.857Z,77.40
2017-10-15T09:52:51.473Z,76.50
2017-10-15T09:55:17.998Z,74.40
2017-10-15T09:57:44.521Z,71.40
2017-10-15T10:00:10.967Z,68.70
2017-10-15T10:02:37.498Z,67.10
2017-10-15T10:05:03.937Z,67.10
2017-10-15T10:07:30.491Z,65.00
2017-10-15T10:09:57.026Z,62.50
2017-10-15T10:12:23.555Z,64.00
2017-10-15T10:14:50.415Z,64.80
2017-10-15T10:17:17.640Z,63.90
2017-10-15T10:19:44.162Z,63.90
2017-10-15T10:22:10.631Z,65.10
2017-10-15T10:24:37.145Z,66.60
2017-10-15T10:27:03.572Z,67.10
2017-10-15T10:29:30.078Z,65.20
2017-10-15T10:31:57.264Z,65.20
2017-10-15T10:34:23.799Z,65.30
2017-10-15T10:36:50.540Z,64.20
2017-10-15T10:39:17.312Z,65.30
2017-10-15T10:41:43.881Z,64.80
2017-10-15T10:47:21.623Z,62.30
2017-10-15T10:52:22.576Z,61.40
2017-10-15T10:54:52.771Z,59.10
2017-10-15T10:57:19.282Z,62.00
2017-10-15T11:02:36.261Z,59.50
2017-10-15T11:05:03.580Z,57.60
2017-10-15T11:07:31.895Z,59.10
2017-10-15T11:09:59.711Z,59.10
2017-10-15T11:12:26.171Z,57.20
2017-10-15T11:15:15.307Z,55.10
2017-10-15T11:17:58.853Z,56.50
2017-10-15T11:20:28.531Z,56.30
2017-10-15T11:22:56.053Z,54.50
2017-10-15T11:25:22.673Z,54.70
2017-10-15T11:27:50.643Z,54.20
2017-10-15T11:30:17.249Z,54.50
2017-10-15T11:32:46.609Z,56.30
2017-10-15T11:35:13.138Z,57.50
2017-10-15T11:40:12.696Z,53.30
2017-10-15T11:42:40.853Z,54.10
2017-10-15T11:45:08.591Z,55.10
2017-10-15T11:47:36.131Z,51.70
2017-10-15T11:50:03.196Z,54.40
2017-10-15T11:52:31.196Z,52.60
2017-10-15T11:55:00.680Z,52.50
2017-10-15T11:57:27.374Z,50.70
2017-10-15T11:59:54.565Z,51.60
2017-10-15T12:02:24.994Z,51.80
2017-10-15T12:04:52.576Z,51.80
2017-10-15T12:07:19.137Z,52.50
2017-10-15T12:09:45.936Z,55.00
2017-10-15T12:12:12.359Z,52.80
2017-10-15T12:14:39.543Z,52.70
2017-10-15T12:17:05.963Z,52.70
2017-10-15T12:19:32.480Z,52.30
2017-10-15T12:22:01.746Z,53.50
2017-10-15T12:24:28.387Z,51.80
2017-10-15T12:26:54.788Z,51.80
2017-10-15T12:29:21.980Z,54.00
2017-10-15T12:31:48.368Z,53.90
2017-10-15T12:34:14.844Z,53.70
2017-10-15T12:36:41.291Z,52.30
2017-10-15T12:39:07.700Z,52.30
2017-10-15T12:41:34.100Z,52.60
2017-10-15T12:44:00.541Z,53.10
2017-10-15T12:46:26.982Z,52.80
2017-10-15T12:48:53.376Z,51.40
2017-10-15T12:51:19.789Z,52.10
2017-10-15T12:53:46.378Z,51.60
2017-10-15T12:56:12.806Z,51.80
2017-10-15T12:58:39.473Z,53.30
2017-10-15T13:01:06.647Z,54.00
2017-10-15T13:03:33.807Z,53.60
2017-10-15T13:06:01.184Z,51.30
2017-10-15T13:08:27.844Z,51.30
2017-10-15T13:10:55.102Z,52.40
2017-10-15T13:13:21.515Z,52.50
2017-10-15T13:15:48.304Z,52.50
2017-10-15T13:18:14.780Z,53.50
2017-10-15T13:20:41.213Z,53.20
2017-10-15T13:23:07.762Z,52.90
2017-10-15T13:25:34.238Z,52.00
2017-10-15T13:28:00.669Z,51.10
2017-10-15T13:30:27.843Z,52.30
2017-10-15T13:32:54.977Z,51.10
2017-10-15T13:35:21.376Z,51.10
2017-10-15T13:37:47.800Z,51.90
2017-10-15T13:40:14.541Z,51.10
2017-10-15T13:42:41.012Z,51.30
2017-10-15T13:45:07.431Z,51.90
2017-10-15T13:47:33.904Z,53.00
2017-10-15T13:50:00.544Z,51.40
2017-10-15T13:52:27.097Z,52.10
2017-10-15T13:54:53.926Z,51.90
2017-10-15T13:57:21.934Z,53.40
2017-10-15T13:59:49.214Z,53.40
2017-10-15T14:02:16.616Z,54.10
2017-10-15T14:04:43.471Z,54.20
2017-10-15T14:07:10.085Z,54.30
2017-10-15T14:09:36.613Z,54.20
2017-10-15T14:12:05.021Z,54.70
2017-10-15T14:14:31.613Z,56.40
2017-10-15T14:16:58.164Z,55.90
2017-10-15T14:19:24.605Z,57.00
2017-10-15T14:21:51.129Z,56.90
2017-10-15T14:24:18.309Z,56.80
2017-10-15T14:26:44.800Z,56.80
2017-10-15T14:29:11.237Z,57.10
2017-10-15T14:31:37.816Z,57.70
2017-10-15T14:34:04.412Z,58.20
2017-10-15T14:36:31.772Z,58.50
2017-10-15T14:38:58.223Z,58.50
2017-10-15T14:41:25.600Z,57.40
2017-10-15T14:43:52.072Z,57.40
2017-10-15T14:46:18.497Z,57.60
2017-10-15T14:48:44.960Z,59.30
2017-10-15T14:51:12.129Z,58.70
2017-10-15T14:53:38.794Z,58.70
2017-10-15T14:56:06.017Z,59.60
2017-10-15T14:58:33.128Z,59.60
2017-10-15T15:00:59.844Z,59.50
2017-10-15T15:03:27.161Z,60.20
2017-10-15T15:05:53.690Z,60.00
2017-10-15T15:08:20.340Z,59.80
2017-10-15T15:10:46.743Z,61.70
2017-10-15T15:13:13.333Z,63.10
2017-10-15T15:15:39.796Z,63.50
2017-10-15T15:18:06.403Z,62.20
2017-10-15T15:20:33.733Z,62.80
2017-10-15T15:23:01.549Z,62.60
2017-10-15T15:25:28.062Z,65.20
2017-10-15T15:27:54.557Z,64.00
2017-10-15T15:30:21.024Z,65.70
2017-10-15T15:32:47.416Z,65.70
2017-10-15T15:35:14.596Z,68.00
2017-10-15T15:37:43.783Z,68.00
2017-10-15T15:40:10.987Z,70.20
2017-10-15T15:42:37.386Z,70.10
2017-10-15T15:45:03.868Z,70.90
2017-10-15T15:47:30.628Z,71.40
2017-10-15T15:49:57.084Z,73.50
2017-10-15T15:52:23.555Z,74.00
2017-10-15T15:54:49.965Z,74.40
2017-10-15T15:57:16.421Z,74.40
2017-10-15T15:59:42.805Z,75.40
2017-10-15T16:02:09.200Z,75.80
2017-10-15T16:04:35.673Z,76.50
2017-10-15T16:07:02.145Z,76.90
2017-10-15T16:09:28.567Z,77.50
2017-10-15T16:11:54.996Z,76.90
2017-10-15T16:14:21.499Z,78.00
2017-10-15T16:16:47.920Z,78.10
2017-10-15T16:19:15.072Z,78.10
2017-10-15T16:21:41.499Z,78.00
2017-10-15T16:24:08.690Z,79.10
2017-10-15T16:26:35.381Z,78.70
2017-10-15T16:29:01.895Z,78.80
2017-10-15T16:31:28.376Z,79.10
2017-10-15T16:33:55.040Z,79.30
2017-10-15T16:36:21.468Z,79.30
2017-10-15T16:38:47.918Z,79.90
2017-10-15T16:41:14.475Z,79.80
2017-10-15T16:43:40.997Z,80.20
2017-10-15T16:46:07.417Z,80.70
2017-10-15T16:48:33.884Z,80.50
2017-10-15T16:51:00.336Z,80.70
2017-10-15T16:53:27.522Z,81.30
2017-10-15T16:55:53.945Z,81.20
2017-10-15T16:58:20.372Z,81.20
2017-10-15T17:00:46.820Z,81.30
2017-10-15T17:03:13.544Z,81.90
2017-10-15T17:05:40.393Z,82.10
2017-10-15T17:08:07.080Z,82.30
2017-10-15T17:10:33.720Z,82.60
2017-10-15T17:13:00.328Z,82.90
2017-10-15T17:15:26.847Z,83.00
2017-10-15T17:17:53.319Z,82.90
2017-10-15T17:20:19.748Z,83.90
2017-10-15T17:22:46.186Z,83.50
2017-10-15T17:25:12.588Z,83.80
2017-10-15T17:27:39.020Z,84.40
2017-10-15T17:30:05.824Z,84.80
2017-10-15T17:32:32.557Z,84.30
2017-10-15T17:34:59.041Z,85.20
2017-10-15T17:37:25.501Z,85.00
2017-10-15T17:39:51.939Z,85.10
2017-10-15T17:42:18.452Z,85.10
2017-10-15T17:44:45.221Z,85.80
2017-10-15T17:47:11.881Z,85.70
2017-10-15T17:49:57.964Z,86.80
2017-10-15T17:52:25.148Z,87.00
2017-10-15T17:54:51.824Z,86.80
2017-10-15T17:57:19.201Z,87.30
2017-10-15T17:59:46.753Z,87.50
2017-10-15T18:02:16.223Z,87.40
2017-10-15T18:04:42.876Z,87.30
2017-10-15T18:07:09.548Z,88.10
2017-10-15T18:09:36.012Z,88.30
2017-10-15T18:12:02.689Z,88.20
2017-10-15T18:14:29.181Z,88.20
2017-10-15T18:16:56.027Z,88.70
2017-10-15T18:19:22.439Z,89.10
2017-10-15T18:21:50.006Z,87.80
2017-10-15T18:24:16.657Z,87.80
2017-10-15T18:26:43.148Z,87.60
2017-10-15T18:29:10.333Z,87.70
2017-10-15T18:31:37.691Z,87.50
2017-10-15T18:34:04.172Z,87.50
2017-10-15T18:36:31.338Z,87.90
2017-10-15T18:38:58.073Z,87.90
2017-10-15T18:41:25.268Z,88.30
2017-10-15T18:43:51.725Z,88.10
2017-10-15T18:46:18.195Z,88.20
2017-10-15T18:48:44.618Z,87.90
2017-10-15T18:51:11.069Z,88.40
2017-10-15T18:53:37.539Z,88.30
2017-10-15T18:56:03.937Z,88.30
2017-10-15T18:58:30.576Z,88.10
2017-10-15T19:00:57.045Z,88.10
2017-10-15T19:03:23.527Z,88.50
2017-10-15T19:05:50.255Z,88.50
2017-10-15T19:08:16.875Z,88.20
2017-10-15T19:10:43.557Z,88.10
2017-10-15T19:13:10.844Z,88.40
2017-10-15T19:15:37.472Z,88.30
2017-10-15T19:18:04.089Z,88.50
2017-10-15T19:20:31.504Z,89.00
2017-10-15T19:22:58.177Z,88.30
2017-10-15T19:25:24.929Z,88.40
2017-10-15T19:27:52.109Z,88.70
2017-10-15T19:30:18.569Z,88.60
2017-10-15T19:32:45.136Z,88.30
2017-10-15T19:35:12.315Z,88.40
2017-10-15T19:37:39.760Z,88.20
2017-10-15T19:40:06.277Z,88.10
2017-10-15T19:42:33.036Z,88.10
2017-10-15T19:45:00.313Z,88.40
2017-10-15T19:47:26.724Z,88.30
2017-10-15T19:49:53.871Z,88.40
2017-10-15T19:52:20.340Z,88.40
2017-10-15T19:54:46.776Z,89.20
2017-10-15T19:57:13.656Z,88.30
2017-10-15T19:59:40.854Z,88.70
2017-10-15T20:02:07.308Z,88.60
2017-10-15T20:04:33.712Z,88.40
2017-10-15T20:07:01.429Z,88.30
2017-10-15T20:09:28.581Z,88.30
2017-10-15T20:11:55.352Z,88.30
2017-10-15T20:14:22.085Z,88.20
2017-10-15T20:16:48.774Z,88.30
2017-10-15T20:19:15.461Z,88.30
2017-10-15T20:21:42.029Z,88.30
2017-10-15T20:24:08.557Z,88.30
2017-10-15T20:26:35.297Z,88.40
2017-10-15T20:29:01.800Z,88.30
2017-10-15T20:31:28.214Z,88.40
2017-10-15T20:33:54.683Z,88.40
2017-10-15T20:36:21.150Z,87.90
2017-10-15T20:38:47.538Z,88.20
2017-10-15T20:41:14.029Z,88.50
2017-10-15T20:43:40.444Z,88.20
2017-10-15T20:46:06.893Z,88.00
2017-10-15T20:48:33.336Z,87.90
2017-10-15T20:50:59.729Z,87.90
2017-10-15T20:53:26.969Z,87.70
2017-10-15T20:55:53.499Z,87.60
2017-10-15T20:58:19.905Z,87.70
2017-10-15T21:00:46.375Z,87.80
2017-10-15T21:03:12.845Z,87.70
2017-10-15T21:05:39.328Z,87.80
2017-10-15T21:08:06.524Z,87.90
2017-10-15T21:10:32.928Z,87.80
2017-10-15T21:13:00.124Z,87.70
2017-10-15T21:15:26.527Z,87.60
2017-10-15T21:17:52.960Z,87.80
2017-10-15T21:20:19.367Z,87.70
2017-10-15T21:22:45.762Z,87.80
2017-10-15T21:25:12.242Z,88.00
2017-10-15T21:27:39.371Z,88.10
2017-10-15T21:30:05.784Z,88.10
2017-10-15T21:32:32.985Z,87.50
2017-10-15T21:34:59.431Z,87.30
2017-10-15T21:37:25.854Z,87.20
2017-10-15T21:39:53.021Z,88.10
2017-10-15T21:42:19.476Z,88.10
2017-10-15T21:44:45.885Z,88.10
2017-10-15T21:47:12.280Z,87.80
2017-10-15T21:49:38.696Z,87.90
2017-10-15T21:52:05.124Z,88.20
2017-10-15T21:54:31.531Z,88.30
2017-10-15T21:56:57.959Z,87.50
2017-10-15T21:59:24.389Z,87.60
2017-10-15T22:01:50.809Z,87.60
2017-10-15T22:04:17.244Z,87.60
2017-10-15T22:06:43.981Z,87.60
2017-10-15T22:09:10.955Z,87.00
2017-10-15T22:11:37.780Z,87.00
2017-10-15T22:14:04.216Z,87.50
2017-10-15T22:16:30.676Z,87.20
2017-10-15T22:19:03.213Z,87.20
2017-10-15T22:21:35.813Z,87.60
2017-10-15T22:24:03.078Z,88.50
2017-10-15T22:26:29.529Z,87.90
2017-10-15T22:28:56.102Z,87.80
2017-10-15T22:31:22.553Z,87.70
2017-10-15T22:33:49.281Z,87.80
2017-10-15T22:36:15.943Z,88.10
2017-10-15T22:38:42.645Z,88.20
2017-10-15T22:41:09.090Z,88.80
2017-10-15T22:43:35.513Z,88.40
2017-10-15T22:46:02.965Z,88.00
2017-10-15T22:48:29.504Z,88.00
2017-10-15T22:50:55.983Z,87.40
2017-10-15T22:53:22.384Z,87.40
2017-10-15T22:55:48.820Z,87.20
2017-10-15T22:58:15.256Z,87.10
2017-10-15T23:00:41.692Z,86.90
2017-10-15T23:03:08.099Z,86.90
2017-10-15T23:05:35.256Z,86.70
2017-10-15T23:08:02.431Z,87.10
2017-10-15T23:10:28.860Z,87.00
2017-10-15T23:12:55.275Z,87.50
2017-10-15T23:15:22.427Z,87.90
2017-10-15T23:17:49.589Z,88.40
2017-10-15T23:20:16.001Z,87.50
2017-10-15T23:22:43.135Z,87.30
2017-10-15T23:25:09.521Z,87.30
2017-10-15T23:27:35.945Z,86.70
2017-10-15T23:30:02.388Z,87.30
2017-10-15T23:32:28.796Z,87.20
2017-10-15T23:34:55.208Z,87.40
2017-10-15T23:37:22.352Z,87.40
2017-10-15T23:39:48.760Z,87.30
2017-10-15T23:42:15.183Z,87.50
2017-10-15T23:44:41.572Z,87.60
2017-10-15T23:47:08.732Z,87.60
2017-10-15T23:49:35.144Z,87.60
2017-10-15T23:52:02.303Z,87.70
2017-10-15T23:54:28.797Z,87.70
2017-10-15T23:56:55.253Z,87.30
2017-10-15T23:59:22.413Z,88.60
